Flight Track Log - Related Links

Times and Time Zones

All times are in EDT time to prevent confusion due to time zone crossing. See the SWA962 flight status page for this flight to view local times or setup timezone preferences in your user account.

Time Position Orientation Groundspeed Altitude Reporting Facility
EDT Latitude Longitude Course Direction KTS MPH feet Rate Location/Type
Wed 06:12:41 PM 36.0500 -86.6500 152° Southeast 219 252 4,000  Level Nashville TRACON
Wed 06:13:41 PM 36.0000 -86.5833 133° Southeast 245 282 7,000 2,933 Climbing Nashville TRACON
Wed 06:14:56 PM 36.0061 -86.4747 86° East 306 352 10,600 2,800 Climbing Memphis Center
Wed 06:15:56 PM 36.0253 -86.3583 78° East 329 379 13,300 3,050 Climbing Memphis Center
Wed 06:16:56 PM 36.0461 -86.2317 78° East 359 413 16,700 3,250 Climbing Memphis Center
Wed 06:17:56 PM 36.0667 -86.1022 79° East 377 434 19,800 2,850 Climbing Memphis Center
Wed 06:18:56 PM 36.0614 -85.9511 92° East 387 445 22,400 2,706 Climbing Memphis Center
Wed 06:21:20 PM 36.0378 -85.6050 95° East 419 482 29,000 1,941 Climbing Atlanta Center
Wed 06:22:20 PM 36.0253 -85.4483 96° East 437 503 29,000  Level Atlanta Center
Wed 06:23:20 PM 36.0144 -85.2914 95° East 448 516 29,000  Level Atlanta Center
Wed 06:24:20 PM 36.0053 -85.1606 95° East 448 516 29,000  Level Atlanta Center
Wed 06:25:20 PM 35.9961 -85.0139 94° East 436 502 29,000  Level Atlanta Center
Wed 06:26:20 PM 35.9867 -84.8650 94° East 430 495 29,000  Level Atlanta Center
Wed 06:27:20 PM 35.9731 -84.7161 96° East 430 495 29,000  Level Atlanta Center
Wed 06:28:20 PM 35.9592 -84.5647 96° East 430 495 29,000  Level Atlanta Center
Wed 06:29:20 PM 35.9472 -84.4133 96° East 435 501 29,000 -350 Level Atlanta Center
Wed 06:30:20 PM 35.9350 -84.2619 96° East 440 506 28,300 -900 Descending Atlanta Center
Wed 06:31:20 PM 35.9228 -84.1183 96° East 435 501 27,200 -1,050 Descending Atlanta Center
Wed 06:32:20 PM 35.9122 -83.9772 95° East 425 489 26,200 -1,000 Descending Atlanta Center
Wed 06:33:20 PM 35.8953 -83.8336 98° East 425 489 25,200 -950 Descending Atlanta Center
Wed 06:34:20 PM 35.8764 -83.6800 99° East 425 489 24,300 -800 Descending Atlanta Center
Wed 06:35:20 PM 35.8569 -83.5417 100° East 425 489 23,600 -650 Descending Atlanta Center
Wed 06:36:20 PM 35.8397 -83.4086 99° East 407 468 23,000 -300 Descending Atlanta Center
Wed 06:37:20 PM 35.8203 -83.2756 100° East 401 461 23,000  Level Atlanta Center
Wed 06:38:20 PM 35.7983 -83.1400 101° East 395 455 23,000 -550 Level Atlanta Center
Wed 06:39:20 PM 35.7661 -83.0100 107° East 388 447 21,900 -1,950 Descending Atlanta Center
Wed 06:40:20 PM 35.7086 -82.8903 121° Southeast 394 453 19,100 -1,450 Descending Atlanta Center
Wed 06:41:20 PM 35.6575 -82.7786 119° Southeast 389 448 19,000 -850 Descending Atlanta Center
Wed 06:42:20 PM 35.6150 -82.6900 121° Southeast 362 417 17,400 -2,150 Descending Atlanta Center
Wed 06:43:20 PM 35.5617 -82.5886 123° Southeast 348 400 14,700 -2,300 Descending Atlanta Center
Wed 06:44:20 PM 35.5122 -82.4850 120° Southeast 348 400 12,800 -1,633 Descending Atlanta Center
Wed 06:46:20 PM 35.4053 -82.2908 124° Southeast 348 400 9,800 -1,500 Descending Atlanta Center
Wed 06:47:20 PM 35.3172 -82.2569 163° South 301 346 8,300 -1,500 Descending Atlanta Center
Wed 06:48:20 PM 35.2336 -82.2358 168° South 306 352 6,800 -1,600 Descending Atlanta Center
Wed 06:49:20 PM 35.1558 -82.2122 166° South 295 339 5,100 -1,400 Descending Atlanta Center
Wed 06:50:20 PM 35.0847 -82.1908 166° South 289 333 4,000 -700 Descending Atlanta Center
Wed 06:51:20 PM 35.0239 -82.1744 168° South 250 288 3,700 -550 Descending Atlanta Center
Wed 06:52:20 PM 34.9861 -82.1653 169° South 204 235 2,900 -850 Descending Atlanta Center
Wed 06:53:20 PM 34.9425 -82.1739 189° South 153 176 2,000 -900 Descending Atlanta Center

Login

Don't have an account? Register now (free) for customized features, flight alerts, and more!